Schuylerville, NY (12871)

8:24 PM EDT on October 21, 2014 (GMT -0400)
Bacon Hill | Change Station
CLOSE
Current Station
Personal Weather Station
Location: Schuylerville, NY
Elevation: 266 ft
Nearby Weather Stations

Elev 266 ft 43.15 °N, 73.61 °W | Updated 45 seconds ago

Overcast
Overcast
49.8 °F
Feels Like 47 °F
N
8.0
Wind Variable Wind from North
Gusts 13.0 mph

Today
High -- | Low -- °F
--% Chance of Precip.
Yesterday
High -- | Low -- °F
Precip. -- in
7:15 AM 6:02 PM
Waning Crescent, 4% visible
Pressure 30.01 in
Visibility 10.0 miles
Clouds Overcast 1700 ft
Windchill 47 °F
Dew Point 48 °F
Humidity 93%
Rainfall 0.07 in
Snow Depth Not available.
UV 0.0 out of 12
Pollen .10 out of 12
Ozone Good
PM2.5 Good
Flu Activity Sporadic
METAR KGFL 212353Z AUTO 01007KT 10SM OVC017 11/08 A2999 RMK AO2 SLP160 60000 T01060078 10122 20094 53012

More Conditions Fewer Conditions

Pressure 30.01 in
Visibility 10.0 miles
Clouds Overcast 1700 ft
Windchill 47 °F
Dew Point 48 °F
Humidity 93%
Rainfall 0.07 in
Snow Depth Not available.
UV 0.0 out of 12
Pollen .10 out of 12
Ozone Good
PM2.5 Good
Flu Activity Sporadic
METAR KGFL 212353Z AUTO 01007KT 10SM OVC017 11/08 A2999 RMK AO2 SLP160 60000 T01060078 10122 20094 53012

More Conditions Fewer Conditions

10-Day Weather Forecast

Almanac

Astronomy

Oct. 21, 2014 Rise Set
Actual Time 7:15 AM EDT 6:02 PM EDT
Civil Twilight 6:46 AM EDT 6:31 PM EDT
Nautical Twilight 6:13 AM EDT 7:04 PM EDT
Astronomical Twilight 5:40 AM EDT 7:36 PM EDT
Moon 4:53 AM EDT (10/21) 4:57 PM EDT (10/21)
Length of Visible Light 11h 44m
Length of Day
10h 46m
Tomorrow will be 2m 46s shorter.
Waning Crescent, 4% of the Moon is Illuminated
Today
Waning Crescent
Oct 23
New
Oct 30
First Quarter
Nov 6
Full
Nov 14
Last Quarter

Today's Extremes

State Highs State Lows

Community

WunderPhotos

Upload Photos

1,763,827 photos uploaded!

Nearby

Air Quality

  Air Quality AQ Index Pollutant
Yesterday Good
OZONE
Yesterday Good
PM2.5
Current Good
PM2.5
Current Good
OZONE
Tuesday Good
PM2.5
Wednesday Good
PM2.5

Snow Depth

Station Depth Elevation
No new snow has been reported.

Earthquake Activity

City Distance Mag. Time & Date
No recent earthquake activity has been reported nearby.
Minimum magnitude displayed is 2.5.

Coastal Water Temperatures

Place Temperature
No Stations Reporting

Nearby Weather Stations